createdAt,value
2022-08-31T00:01:43.604Z,3.80
2022-08-31T00:04:11.831Z,3.03
2022-08-31T00:06:38.125Z,2.10
2022-08-31T00:09:05.347Z,3.05
2022-08-31T00:11:35.854Z,1.83
2022-08-31T00:14:06.343Z,2.25
2022-08-31T00:16:33.996Z,2.85
2022-08-31T00:19:01.554Z,3.35
2022-08-31T00:21:28.142Z,3.08
2022-08-31T00:23:54.670Z,3.53
2022-08-31T00:26:21.833Z,2.67
2022-08-31T00:28:48.213Z,2.67
2022-08-31T00:31:15.070Z,3.03
2022-08-31T00:33:42.114Z,2.25
2022-08-31T00:36:10.348Z,2.42
2022-08-31T00:38:36.994Z,2.25
2022-08-31T00:41:03.662Z,2.05
2022-08-31T00:43:37.880Z,2.47
2022-08-31T00:46:04.389Z,1.92
2022-08-31T00:48:30.775Z,2.78
2022-08-31T00:50:57.435Z,2.97
2022-08-31T00:53:24.425Z,2.05
2022-08-31T00:55:51.407Z,2.80
2022-08-31T00:58:17.716Z,3.08
2022-08-31T01:00:45.027Z,3.63
2022-08-31T01:03:11.893Z,2.83
2022-08-31T01:05:38.255Z,2.50
2022-08-31T01:08:05.262Z,1.50
2022-08-31T01:10:36.605Z,2.50
2022-08-31T01:13:04.005Z,3.10
2022-08-31T01:15:30.819Z,3.70
2022-08-31T01:17:58.986Z,2.90
2022-08-31T01:20:49.060Z,2.72
2022-08-31T01:23:18.362Z,1.90
2022-08-31T01:25:46.011Z,2.35
2022-08-31T01:28:12.763Z,2.67
2022-08-31T01:30:39.758Z,2.25
2022-08-31T01:33:06.285Z,2.17
2022-08-31T01:35:33.489Z,2.40
2022-08-31T01:38:00.203Z,2.47
2022-08-31T01:40:44.012Z,4.07
2022-08-31T01:43:10.437Z,1.45
2022-08-31T01:45:36.768Z,2.83
2022-08-31T01:48:03.303Z,2.22
2022-08-31T01:50:29.598Z,2.90
2022-08-31T01:52:55.975Z,2.65
2022-08-31T01:55:22.240Z,2.63
2022-08-31T01:57:49.088Z,2.38
2022-08-31T02:00:15.520Z,2.17
2022-08-31T02:02:41.972Z,2.20
2022-08-31T02:05:10.157Z,2.42
2022-08-31T02:07:36.460Z,1.92
2022-08-31T02:10:04.047Z,2.33
2022-08-31T02:12:30.345Z,1.95
2022-08-31T02:14:56.655Z,2.50
2022-08-31T02:17:23.023Z,2.47
2022-08-31T02:19:49.349Z,2.28
2022-08-31T02:22:15.720Z,2.83
2022-08-31T02:24:42.036Z,2.00
2022-08-31T02:27:08.342Z,3.00
2022-08-31T02:29:34.709Z,1.75
2022-08-31T02:32:01.215Z,1.90
2022-08-31T02:34:28.148Z,2.10
2022-08-31T02:36:54.521Z,2.78
2022-08-31T02:39:20.936Z,2.28
2022-08-31T02:41:47.204Z,1.65
2022-08-31T02:44:13.820Z,2.38
2022-08-31T02:46:40.231Z,3.70
2022-08-31T02:49:06.704Z,2.55
2022-08-31T02:51:32.967Z,1.88
2022-08-31T02:53:59.234Z,2.83
2022-08-31T02:56:25.926Z,2.53
2022-08-31T02:58:54.914Z,2.78
2022-08-31T03:01:22.488Z,2.10
2022-08-31T03:03:48.962Z,2.70
2022-08-31T03:06:15.510Z,2.95
2022-08-31T03:08:42.185Z,2.35
2022-08-31T03:11:08.769Z,2.33
2022-08-31T03:13:36.730Z,1.92
2022-08-31T03:16:03.302Z,2.97
2022-08-31T03:18:29.808Z,2.13
2022-08-31T03:20:56.396Z,2.10
2022-08-31T03:23:22.664Z,2.30
2022-08-31T03:25:48.998Z,3.15
2022-08-31T03:28:15.337Z,2.35
2022-08-31T03:30:42.109Z,2.20
2022-08-31T03:33:09.012Z,3.72
2022-08-31T03:35:35.421Z,2.40
2022-08-31T03:38:02.619Z,2.08
2022-08-31T03:40:29.373Z,2.33
2022-08-31T03:42:58.814Z,3.72
2022-08-31T03:45:25.225Z,2.53
2022-08-31T03:47:51.511Z,3.40
2022-08-31T03:50:17.941Z,2.97
2022-08-31T03:52:44.420Z,3.45
2022-08-31T03:55:11.005Z,2.65
2022-08-31T03:57:37.549Z,2.58
2022-08-31T04:00:04.924Z,2.42
2022-08-31T04:02:36.852Z,2.38
2022-08-31T04:05:04.015Z,2.55
2022-08-31T04:07:30.304Z,2.67
2022-08-31T04:10:08.881Z,1.63
2022-08-31T04:12:35.195Z,2.50
2022-08-31T04:15:02.356Z,8.52
2022-08-31T04:17:28.600Z,1.83
2022-08-31T04:19:54.908Z,3.13
2022-08-31T04:22:21.178Z,2.28
2022-08-31T04:24:47.452Z,1.95
2022-08-31T04:27:13.794Z,2.00
2022-08-31T04:29:40.147Z,2.33
2022-08-31T04:32:06.465Z,3.42
2022-08-31T04:34:32.751Z,2.25
2022-08-31T04:36:59.060Z,2.25
2022-08-31T04:39:25.851Z,1.88
2022-08-31T04:41:57.975Z,3.22
2022-08-31T04:44:26.274Z,1.80
2022-08-31T04:46:52.531Z,2.03
2022-08-31T04:49:18.967Z,2.85
2022-08-31T04:51:45.273Z,1.60
2022-08-31T04:54:12.659Z,2.42
2022-08-31T04:56:40.328Z,3.72
2022-08-31T04:59:07.799Z,2.25
2022-08-31T05:01:43.139Z,1.85
2022-08-31T05:04:11.061Z,2.85
2022-08-31T05:06:38.971Z,2.28
2022-08-31T05:09:07.086Z,1.77
2022-08-31T05:11:33.929Z,2.72
2022-08-31T05:14:01.287Z,1.80
2022-08-31T05:16:27.971Z,1.48
2022-08-31T05:18:55.008Z,1.80
2022-08-31T05:21:28.299Z,2.08
2022-08-31T05:23:58.764Z,2.53
2022-08-31T05:26:26.959Z,1.63
2022-08-31T05:28:53.997Z,1.98
2022-08-31T05:31:21.507Z,1.08
2022-08-31T05:33:47.943Z,1.58
2022-08-31T05:36:14.569Z,3.05
2022-08-31T05:38:41.349Z,1.63
2022-08-31T05:41:08.106Z,3.08
2022-08-31T05:43:34.535Z,2.53
2022-08-31T05:46:01.055Z,2.03
2022-08-31T05:48:33.379Z,2.08
2022-08-31T05:51:01.116Z,2.15
2022-08-31T05:53:27.504Z,3.58
2022-08-31T05:56:01.084Z,2.60
2022-08-31T05:58:27.760Z,2.42
2022-08-31T06:00:54.041Z,1.67
2022-08-31T06:03:20.502Z,2.08
2022-08-31T06:05:46.872Z,2.45
2022-08-31T06:08:15.326Z,2.60
2022-08-31T06:10:41.880Z,2.58
2022-08-31T06:13:08.528Z,1.80
2022-08-31T06:15:35.484Z,2.70
2022-08-31T06:18:08.730Z,2.42
2022-08-31T06:20:39.319Z,2.20
2022-08-31T06:23:07.253Z,2.10
2022-08-31T06:25:36.587Z,2.15
2022-08-31T06:28:07.233Z,3.50
2022-08-31T06:30:44.225Z,3.03
2022-08-31T06:33:21.058Z,2.45
2022-08-31T06:35:47.951Z,3.10
2022-08-31T06:38:14.309Z,1.60
2022-08-31T06:40:40.650Z,1.73
2022-08-31T06:43:07.767Z,2.83
2022-08-31T06:45:34.039Z,2.47
2022-08-31T06:48:00.782Z,2.17
2022-08-31T06:50:27.173Z,2.00
2022-08-31T06:52:55.552Z,2.72
2022-08-31T06:55:22.178Z,3.92
2022-08-31T06:57:48.523Z,2.03
2022-08-31T07:00:14.840Z,1.85
2022-08-31T07:02:41.237Z,2.83
2022-08-31T07:05:08.998Z,4.47
2022-08-31T07:07:37.377Z,2.17
2022-08-31T07:10:04.874Z,3.97
2022-08-31T07:12:31.235Z,2.70
2022-08-31T07:14:57.694Z,3.45
2022-08-31T07:17:24.444Z,3.15
2022-08-31T07:19:51.661Z,2.38
2022-08-31T07:22:18.054Z,3.25
2022-08-31T07:24:44.517Z,3.30
2022-08-31T07:27:12.963Z,2.25
2022-08-31T07:29:42.620Z,3.60
2022-08-31T07:32:09.857Z,2.80
2022-08-31T07:34:36.638Z,3.17
2022-08-31T07:37:22.094Z,3.55
2022-08-31T07:40:08.337Z,4.55
2022-08-31T07:42:36.759Z,3.65
2022-08-31T07:45:05.576Z,3.83
2022-08-31T07:47:33.096Z,2.33
2022-08-31T07:50:01.240Z,4.57
2022-08-31T07:52:29.347Z,4.88
2022-08-31T07:54:57.987Z,5.13
2022-08-31T07:57:30.111Z,3.35
2022-08-31T08:00:04.294Z,3.78
2022-08-31T08:02:30.858Z,4.10
2022-08-31T08:05:00.839Z,3.33
2022-08-31T08:07:27.405Z,5.03
2022-08-31T08:09:55.518Z,4.25
2022-08-31T08:12:23.988Z,4.32
2022-08-31T08:14:52.768Z,3.65
2022-08-31T08:17:19.135Z,3.42
2022-08-31T08:19:45.463Z,2.33
2022-08-31T08:22:11.755Z,2.92
2022-08-31T08:24:39.966Z,3.85
2022-08-31T08:27:07.275Z,2.50
2022-08-31T08:29:33.709Z,5.07
2022-08-31T08:32:00.250Z,4.13
2022-08-31T08:34:32.578Z,3.80
2022-08-31T08:36:59.396Z,8.02
2022-08-31T08:39:25.817Z,3.50
2022-08-31T08:41:54.290Z,3.63
2022-08-31T08:44:21.678Z,4.35
2022-08-31T08:46:50.852Z,4.13
2022-08-31T08:49:31.746Z,5.03
2022-08-31T08:52:10.796Z,4.70
2022-08-31T08:54:42.514Z,3.72
2022-08-31T08:57:35.156Z,3.80
2022-08-31T09:00:10.774Z,5.43
2022-08-31T09:02:41.809Z,4.32
2022-08-31T09:05:15.432Z,3.30
2022-08-31T09:07:44.339Z,3.90
2022-08-31T09:10:34.370Z,3.95
2022-08-31T09:13:01.627Z,4.60
2022-08-31T09:15:37.081Z,5.00
2022-08-31T09:18:10.155Z,4.68
2022-08-31T09:20:36.474Z,2.47
2022-08-31T09:23:07.804Z,4.45
2022-08-31T09:25:47.714Z,6.72
2022-08-31T09:28:16.281Z,3.05
2022-08-31T09:30:45.612Z,3.50
2022-08-31T09:33:21.013Z,3.22
2022-08-31T09:35:48.299Z,3.85
2022-08-31T09:38:31.592Z,3.38
2022-08-31T09:40:58.509Z,6.75
2022-08-31T09:43:32.162Z,5.53
2022-08-31T09:46:05.938Z,7.32
2022-08-31T09:48:58.608Z,6.47
2022-08-31T09:51:29.336Z,3.70
2022-08-31T09:54:37.937Z,5.43
2022-08-31T09:57:09.379Z,6.13
2022-08-31T09:59:38.870Z,6.03
2022-08-31T10:02:28.560Z,5.35
2022-08-31T10:04:56.698Z,3.85
2022-08-31T10:07:44.723Z,4.90
2022-08-31T10:10:37.079Z,7.20
2022-08-31T10:13:03.774Z,4.03
2022-08-31T10:15:33.415Z,5.15
2022-08-31T10:18:11.828Z,5.97
2022-08-31T10:20:42.485Z,4.75
2022-08-31T10:23:21.015Z,4.55
2022-08-31T10:25:52.693Z,4.43
2022-08-31T10:28:37.305Z,3.75
2022-08-31T10:31:10.169Z,5.07
2022-08-31T10:34:00.744Z,6.13
2022-08-31T10:36:36.426Z,3.88
2022-08-31T10:39:03.131Z,5.05
2022-08-31T10:41:32.983Z,4.53
2022-08-31T10:44:23.914Z,6.85
2022-08-31T10:46:54.244Z,6.00
2022-08-31T10:49:21.483Z,4.22
2022-08-31T10:52:18.154Z,6.65
2022-08-31T10:54:55.475Z,7.93
2022-08-31T10:58:00.151Z,9.23
2022-08-31T11:00:48.780Z,11.07
2022-08-31T11:03:22.522Z,8.35
2022-08-31T11:06:05.499Z,6.40
2022-08-31T11:08:45.223Z,6.40
2022-08-31T11:11:16.831Z,5.53
2022-08-31T11:14:00.259Z,12.57
2022-08-31T11:16:26.868Z,10.05
2022-08-31T11:19:00.309Z,3.67
2022-08-31T11:21:37.044Z,6.68
2022-08-31T11:24:22.480Z,5.07
2022-08-31T11:26:58.026Z,4.30
2022-08-31T11:29:34.466Z,4.85
2022-08-31T11:32:07.128Z,3.38
2022-08-31T11:34:40.004Z,5.20
2022-08-31T11:37:07.424Z,3.85
2022-08-31T11:39:37.814Z,4.03
2022-08-31T11:42:08.459Z,4.25
2022-08-31T11:44:39.471Z,4.07
2022-08-31T11:47:12.839Z,3.72
2022-08-31T11:49:43.727Z,4.07
2022-08-31T11:52:14.546Z,4.53
2022-08-31T11:54:44.842Z,4.07
2022-08-31T11:57:15.523Z,3.80
2022-08-31T11:59:46.182Z,4.10
2022-08-31T12:02:25.795Z,3.45
2022-08-31T12:04:53.128Z,6.22
2022-08-31T12:07:30.635Z,4.65
2022-08-31T12:10:15.533Z,4.72
2022-08-31T12:13:05.430Z,5.93
2022-08-31T12:15:38.026Z,3.70
2022-08-31T12:18:17.198Z,4.35
2022-08-31T12:21:12.369Z,4.22
2022-08-31T12:24:05.277Z,4.32
2022-08-31T12:26:34.404Z,3.38
2022-08-31T12:29:17.189Z,4.22
2022-08-31T12:31:57.853Z,3.90
2022-08-31T12:34:24.881Z,3.42
2022-08-31T12:36:51.355Z,3.25
2022-08-31T12:39:22.311Z,4.57
2022-08-31T12:41:56.692Z,4.60
2022-08-31T12:44:26.272Z,3.25
2022-08-31T12:46:52.779Z,4.43
2022-08-31T12:49:25.272Z,4.35
2022-08-31T12:52:00.740Z,4.20
2022-08-31T12:54:47.404Z,4.35
2022-08-31T12:57:27.502Z,3.08
2022-08-31T13:00:11.711Z,3.53
2022-08-31T13:05:24.959Z,3.47
2022-08-31T13:07:51.355Z,4.90
2022-08-31T13:10:34.774Z,3.67
2022-08-31T13:13:03.281Z,3.22
2022-08-31T13:15:29.827Z,5.78
2022-08-31T13:17:56.529Z,3.03
2022-08-31T13:20:26.393Z,3.17
2022-08-31T13:22:58.111Z,3.90
2022-08-31T13:25:35.697Z,3.60
2022-08-31T13:28:04.174Z,3.75
2022-08-31T13:30:31.779Z,4.85
2022-08-31T13:32:59.228Z,4.95
2022-08-31T13:35:26.949Z,4.82
2022-08-31T13:38:04.910Z,2.92
2022-08-31T13:40:33.699Z,3.63
2022-08-31T13:43:00.419Z,4.18
2022-08-31T13:45:26.847Z,4.22
2022-08-31T13:47:58.257Z,3.47
2022-08-31T13:50:27.793Z,3.45
2022-08-31T13:53:16.137Z,4.90
2022-08-31T13:55:43.518Z,4.88
2022-08-31T13:58:22.634Z,4.07
2022-08-31T14:00:58.691Z,3.60
2022-08-31T14:03:58.963Z,4.30
2022-08-31T14:06:28.159Z,4.75
2022-08-31T14:08:56.217Z,3.60
2022-08-31T14:11:28.385Z,3.90
2022-08-31T14:13:55.512Z,3.75
2022-08-31T14:16:32.817Z,3.65
2022-08-31T14:18:59.646Z,3.47
2022-08-31T14:21:28.800Z,3.35
2022-08-31T14:24:00.421Z,3.75
2022-08-31T14:26:28.878Z,2.88
2022-08-31T14:28:57.030Z,4.68
2022-08-31T14:31:40.190Z,4.22
2022-08-31T14:34:09.486Z,3.97
2022-08-31T14:36:43.577Z,5.50
2022-08-31T14:39:09.998Z,4.32
2022-08-31T14:41:36.360Z,3.63
2022-08-31T14:44:06.906Z,2.67
2022-08-31T14:46:34.010Z,3.33
2022-08-31T14:49:00.755Z,4.22
2022-08-31T14:51:28.035Z,5.32
2022-08-31T14:53:56.835Z,4.47
2022-08-31T14:56:31.077Z,3.63
2022-08-31T14:58:58.295Z,3.20
2022-08-31T15:01:28.740Z,4.53
2022-08-31T15:03:55.462Z,3.58
2022-08-31T15:06:21.850Z,4.38
2022-08-31T15:08:48.408Z,4.82
2022-08-31T15:11:14.727Z,4.57
2022-08-31T15:13:41.467Z,3.42
2022-08-31T15:16:08.202Z,3.83
2022-08-31T15:18:35.420Z,5.90
2022-08-31T15:21:02.811Z,4.10
2022-08-31T15:23:29.825Z,5.45
2022-08-31T15:26:06.355Z,2.85
2022-08-31T15:28:41.841Z,4.50
2022-08-31T15:31:28.520Z,3.78
2022-08-31T15:33:55.490Z,4.57
2022-08-31T15:36:24.798Z,5.03
2022-08-31T15:38:53.966Z,3.38
2022-08-31T15:41:20.965Z,3.58
2022-08-31T15:43:47.491Z,3.67
2022-08-31T15:46:14.224Z,4.53
2022-08-31T15:48:45.352Z,3.78
2022-08-31T15:51:19.809Z,3.25
2022-08-31T15:54:00.773Z,4.80
2022-08-31T15:56:33.145Z,3.40
2022-08-31T15:59:01.599Z,4.10
2022-08-31T16:01:27.971Z,4.30
2022-08-31T16:03:56.240Z,3.63
2022-08-31T16:06:25.737Z,4.25
2022-08-31T16:08:55.300Z,3.83
2022-08-31T16:11:26.379Z,5.22
2022-08-31T16:13:58.602Z,3.28
2022-08-31T16:16:28.029Z,4.25
2022-08-31T16:18:57.774Z,3.67
2022-08-31T16:21:25.408Z,4.25
2022-08-31T16:23:59.502Z,4.45
2022-08-31T16:26:26.718Z,5.63
2022-08-31T16:28:53.179Z,4.72
2022-08-31T16:31:19.560Z,6.35
2022-08-31T16:33:45.902Z,5.07
2022-08-31T16:36:19.490Z,5.65
2022-08-31T16:38:46.959Z,5.03
2022-08-31T16:41:13.471Z,4.03
2022-08-31T16:43:40.460Z,4.38
2022-08-31T16:46:37.042Z,6.38
2022-08-31T16:49:12.962Z,7.82
2022-08-31T16:51:39.490Z,5.68
2022-08-31T16:54:09.104Z,8.63
2022-08-31T16:56:37.163Z,6.57
2022-08-31T16:59:03.696Z,5.28
2022-08-31T17:01:31.968Z,6.78
2022-08-31T17:04:00.689Z,4.47
2022-08-31T17:06:29.483Z,6.10
2022-08-31T17:08:57.186Z,9.27
2022-08-31T17:11:31.231Z,4.95
2022-08-31T17:13:59.444Z,7.55
2022-08-31T17:16:27.727Z,4.10
2022-08-31T17:18:54.935Z,4.43
2022-08-31T17:21:22.853Z,6.35
2022-08-31T17:23:50.983Z,4.22
2022-08-31T17:26:18.559Z,6.88
2022-08-31T17:28:47.294Z,6.57
2022-08-31T17:31:13.641Z,5.20
2022-08-31T17:33:40.179Z,4.55
2022-08-31T17:36:07.214Z,6.80
2022-08-31T17:38:33.525Z,5.07
2022-08-31T17:41:09.801Z,6.43
2022-08-31T17:43:39.234Z,5.68
2022-08-31T17:46:07.440Z,7.18
2022-08-31T17:48:36.154Z,9.25
2022-08-31T17:51:08.939Z,5.22
2022-08-31T17:53:36.768Z,7.80
2022-08-31T17:56:04.867Z,5.38
2022-08-31T17:58:32.277Z,5.15
2022-08-31T18:01:00.345Z,6.90
2022-08-31T18:03:27.270Z,5.43
2022-08-31T18:05:53.648Z,5.25
2022-08-31T18:08:23.811Z,7.95
2022-08-31T18:10:52.149Z,7.43
2022-08-31T18:13:20.312Z,9.40
2022-08-31T18:15:51.182Z,5.78
2022-08-31T18:18:17.629Z,8.10
2022-08-31T18:20:47.556Z,5.88
2022-08-31T18:23:16.402Z,7.18
2022-08-31T18:25:42.730Z,12.70
2022-08-31T18:28:09.063Z,9.30
2022-08-31T18:30:38.966Z,9.82
2022-08-31T18:33:06.116Z,6.30
2022-08-31T18:35:32.495Z,7.00
2022-08-31T18:37:58.791Z,6.80
2022-08-31T18:40:44.146Z,7.82
2022-08-31T18:43:29.072Z,7.50
2022-08-31T18:45:55.992Z,5.38
2022-08-31T18:48:32.116Z,3.95
2022-08-31T18:50:58.881Z,6.07
2022-08-31T18:53:27.509Z,4.07
2022-08-31T18:55:55.204Z,4.07
2022-08-31T18:58:21.516Z,6.28
2022-08-31T19:00:53.539Z,3.95
2022-08-31T19:03:19.966Z,4.45
2022-08-31T19:05:46.359Z,4.13
2022-08-31T19:08:12.659Z,4.60
2022-08-31T19:10:41.580Z,4.28
2022-08-31T19:13:17.646Z,4.55
2022-08-31T19:15:44.003Z,4.75
2022-08-31T19:18:10.343Z,4.35
2022-08-31T19:20:36.655Z,4.60
2022-08-31T19:23:03.114Z,3.97
2022-08-31T19:25:31.797Z,3.88
2022-08-31T19:28:01.180Z,4.80
2022-08-31T19:30:28.481Z,4.55
2022-08-31T19:32:56.169Z,3.63
2022-08-31T19:35:22.674Z,3.42
2022-08-31T19:37:51.578Z,3.78
2022-08-31T19:40:18.286Z,5.32
2022-08-31T19:43:42.764Z,4.43
2022-08-31T19:45:47.732Z,3.03
2022-08-31T19:48:17.127Z,3.70
2022-08-31T19:50:43.751Z,3.58
2022-08-31T19:53:14.027Z,3.03
2022-08-31T19:55:51.013Z,4.25
2022-08-31T19:58:18.587Z,2.67
2022-08-31T20:00:44.945Z,3.35
2022-08-31T20:03:14.871Z,3.70
2022-08-31T20:05:41.967Z,2.92
2022-08-31T20:08:08.265Z,3.45
2022-08-31T20:10:34.580Z,3.25
2022-08-31T20:13:01.918Z,2.55
2022-08-31T20:15:28.272Z,3.08
2022-08-31T20:17:57.192Z,4.47
2022-08-31T20:20:23.944Z,3.00
2022-08-31T20:22:50.965Z,3.35
2022-08-31T20:25:19.114Z,3.05
2022-08-31T20:27:45.980Z,3.08
2022-08-31T20:30:16.825Z,2.60
2022-08-31T20:32:43.109Z,4.47
2022-08-31T20:35:09.519Z,3.22
2022-08-31T20:37:36.055Z,4.13
2022-08-31T20:40:04.037Z,4.20
2022-08-31T20:42:31.202Z,2.75
2022-08-31T20:44:57.527Z,5.22
2022-08-31T20:48:02.328Z,2.50
2022-08-31T20:50:29.638Z,3.35
2022-08-31T20:52:56.739Z,3.53
2022-08-31T20:55:22.998Z,2.70
2022-08-31T20:57:50.575Z,2.38
2022-08-31T21:00:19.350Z,3.33
2022-08-31T21:02:46.996Z,3.47
2022-08-31T21:05:37.473Z,2.65
2022-08-31T21:08:03.111Z,4.68
2022-08-31T21:10:37.743Z,3.30
2022-08-31T21:13:05.396Z,3.28
2022-08-31T21:15:32.664Z,3.80
2022-08-31T21:17:59.562Z,4.03
2022-08-31T21:20:26.336Z,2.65
2022-08-31T21:22:53.034Z,4.68
2022-08-31T21:25:19.334Z,3.97
2022-08-31T21:27:46.972Z,2.75
2022-08-31T21:30:13.336Z,3.58
2022-08-31T21:32:40.608Z,2.53
2022-08-31T21:35:10.940Z,2.92
2022-08-31T21:37:37.311Z,3.38
2022-08-31T21:40:05.140Z,4.28
2022-08-31T21:42:32.111Z,2.88
2022-08-31T21:44:58.404Z,5.18
2022-08-31T21:47:24.716Z,4.10
2022-08-31T21:49:53.253Z,5.50
2022-08-31T21:52:19.749Z,3.80
2022-08-31T21:54:47.897Z,3.38
2022-08-31T21:57:15.526Z,3.63
2022-08-31T21:59:41.855Z,3.65
2022-08-31T22:02:12.192Z,3.65
2022-08-31T22:04:39.657Z,2.30
2022-08-31T22:07:07.912Z,3.00
2022-08-31T22:09:34.976Z,2.28
2022-08-31T22:12:06.230Z,3.10
2022-08-31T22:14:35.800Z,3.40
2022-08-31T22:17:06.743Z,2.60
2022-08-31T22:19:36.029Z,2.75
2022-08-31T22:22:04.974Z,3.40
2022-08-31T22:24:32.167Z,3.85
2022-08-31T22:26:59.607Z,2.78
2022-08-31T22:29:28.441Z,2.22
2022-08-31T22:31:57.585Z,2.05
2022-08-31T22:34:26.443Z,3.28
2022-08-31T22:36:53.813Z,4.63
2022-08-31T22:39:21.599Z,3.13
2022-08-31T22:41:48.286Z,3.33
2022-08-31T22:44:16.731Z,2.28
2022-08-31T22:46:43.754Z,3.17
2022-08-31T22:49:10.480Z,3.17
2022-08-31T22:51:38.141Z,3.35
2022-08-31T22:54:04.507Z,3.20
2022-08-31T22:56:32.999Z,2.47
2022-08-31T22:59:00.991Z,2.40
2022-08-31T23:01:29.500Z,4.57
2022-08-31T23:03:58.805Z,3.30
2022-08-31T23:06:26.556Z,2.50
2022-08-31T23:08:53.848Z,2.65
2022-08-31T23:11:21.181Z,2.03
2022-08-31T23:13:57.481Z,2.78
2022-08-31T23:16:24.940Z,3.00
2022-08-31T23:18:52.329Z,2.63
2022-08-31T23:21:18.948Z,2.80
2022-08-31T23:23:45.768Z,2.40
2022-08-31T23:26:12.136Z,3.85
2022-08-31T23:28:39.105Z,3.75
2022-08-31T23:31:07.573Z,4.68
2022-08-31T23:33:34.520Z,2.53
2022-08-31T23:36:00.844Z,2.78
2022-08-31T23:38:30.281Z,2.65
2022-08-31T23:40:56.601Z,3.22
2022-08-31T23:43:23.084Z,2.65
2022-08-31T23:45:49.385Z,2.70
2022-08-31T23:48:15.885Z,2.38
2022-08-31T23:50:42.563Z,3.10
2022-08-31T23:53:14.423Z,3.47
2022-08-31T23:55:45.035Z,1.70
2022-08-31T23:58:13.967Z,3.05
